Time;durP1;ratioP1;P1;durP2;ratioP2;P2;SDS_P1;SDS_P2;PMS_P1;PMS_P2;Temp;Humidity;BMP_temperature;BMP_pressure;BME280_temperature;BME280_humidity;BME280_pressure;Samples;Min_cycle;Max_cycle;Signal;HPM_P1;HPM_P2
2022/06/04 00:01:45;;;;;;;4.68;2.00;;;;;;;22.52;37.77;102051.06;5029195;28;20133;-73
2022/06/04 00:04:12;;;;;;;3.90;1.83;;;;;;;21.94;38.35;102058.69;5029399;28;20037;-74
2022/06/04 00:06:38;;;;;;;1.95;1.75;;;;;;;22.11;38.19;102056.22;5028682;28;20025;-75
2022/06/04 00:09:07;;;;;;;5.82;1.77;;;;;;;22.30;38.04;102063.50;5027119;28;20040;-73
2022/06/04 00:17:00;;;;;;;4.65;2.13;;;;;;;22.44;38.18;102071.81;5029926;28;20048;-74
2022/06/04 00:19:27;;;;;;;3.90;2.00;;;;;;;22.30;38.13;102060.84;5028995;28;20025;-74
2022/06/04 00:21:52;;;;;;;2.00;1.70;;;;;;;22.35;37.81;102058.88;5028609;28;20171;-73
2022/06/04 00:24:17;;;;;;;3.97;1.67;;;;;;;22.27;37.87;102053.84;5032805;28;20100;-73
2022/06/04 00:26:43;;;;;;;2.47;1.67;;;;;;;21.19;39.65;102050.72;5033733;28;20069;-74
2022/06/04 00:29:09;;;;;;;3.42;2.20;;;;;;;20.92;40.23;102041.06;5031633;28;20057;-72
2022/06/04 00:31:36;;;;;;;5.35;1.73;;;;;;;20.93;40.71;102046.34;5032400;28;20049;-74
2022/06/04 00:34:03;;;;;;;3.05;2.17;;;;;;;22.31;38.22;102041.25;5032175;28;20393;-74
2022/06/04 00:36:31;;;;;;;5.93;2.40;;;;;;;20.87;40.48;102043.00;5026542;28;20469;-73
2022/06/04 00:38:56;;;;;;;6.05;2.15;;;;;;;20.35;42.35;102051.75;5031539;28;20021;-74
2022/06/04 00:41:25;;;;;;;6.43;2.45;;;;;;;20.71;41.12;102048.84;5032232;28;20393;-75
2022/06/04 00:44:10;;;;;;;4.38;2.78;;;;;;;22.04;39.19;102044.09;5037230;28;20033;-74
2022/06/04 00:46:41;;;;;;;6.38;2.83;;;;;;;21.59;39.59;102053.78;5030515;28;20040;-74
2022/06/04 00:49:09;;;;;;;8.02;3.10;;;;;;;21.14;40.17;102051.81;5033556;28;20037;-74
2022/06/04 00:51:35;;;;;;;6.20;3.38;;;;;;;21.22;40.29;102059.53;5031729;28;20567;-72
2022/06/04 00:54:02;;;;;;;6.07;3.20;;;;;;;21.28;40.39;102059.31;5031633;28;20029;-73
2022/06/04 00:56:36;;;;;;;4.22;2.30;;;;;;;21.45;40.03;102056.91;5031125;28;20033;-74
2022/06/04 00:59:30;;;;;;;9.15;3.20;;;;;;;21.83;38.66;102054.66;5031800;28;20033;-73
2022/06/04 01:02:11;;;;;;;4.90;2.75;;;;;;;21.27;39.74;102060.25;5031254;28;20029;-73
2022/06/04 01:05:04;;;;;;;5.63;2.85;;;;;;;22.12;37.98;102057.97;5031604;28;20096;-73
2022/06/04 01:07:29;;;;;;;6.18;2.97;;;;;;;21.46;39.36;102063.97;5047269;28;20444;-74
2022/06/04 01:10:14;;;;;;;8.05;4.10;;;;;;;21.36;39.90;102062.56;5032185;28;20037;-73
2022/06/04 01:13:04;;;;;;;4.88;3.60;;;;;;;21.20;40.21;102070.22;5030713;28;20198;-74
2022/06/04 01:15:35;;;;;;;8.10;4.07;;;;;;;22.27;38.40;102076.91;5029460;28;20112;-74
2022/06/04 01:18:00;;;;;;;9.40;3.65;;;;;;;20.97;40.65;102090.47;5031788;28;20040;-74
2022/06/04 01:20:57;;;;;;;7.30;3.70;;;;;;;20.64;41.46;102095.09;5031780;28;20034;-74
2022/06/04 01:23:41;;;;;;;8.10;3.78;;;;;;;20.58;41.36;102097.94;5060707;28;20034;-72
2022/06/04 01:26:18;;;;;;;10.02;3.80;;;;;;;21.95;39.34;102097.69;5030859;28;20041;-73
2022/06/04 01:28:50;;;;;;;6.20;3.92;;;;;;;21.15;40.94;102096.09;5063299;28;20038;-73
2022/06/04 01:31:23;;;;;;;7.13;4.30;;;;;;;21.43;40.69;102096.00;5031562;28;20076;-73
2022/06/04 01:33:59;;;;;;;9.77;3.90;;;;;;;21.02;41.22;102100.97;5028891;28;20323;-74
2022/06/04 01:36:36;;;;;;;7.38;4.05;;;;;;;21.65;39.81;102105.88;5031127;28;20040;-74
2022/06/04 01:39:24;;;;;;;8.93;3.47;;;;;;;20.96;40.99;102101.16;5031618;28;20044;-74
2022/06/04 01:41:54;;;;;;;6.65;4.22;;;;;;;20.32;42.65;102107.63;5027957;28;20108;-73
2022/06/04 01:44:48;;;;;;;6.28;4.30;;;;;;;20.08;43.25;102118.03;5030843;28;20029;-74
2022/06/04 01:47:14;;;;;;;10.43;3.85;;;;;;;19.24;44.80;102118.59;5063133;28;20134;-74
2022/06/04 01:49:48;;;;;;;9.00;4.18;;;;;;;20.57;42.45;102122.78;5030421;28;20056;-74
2022/06/04 01:52:36;;;;;;;9.15;4.30;;;;;;;21.37;40.66;102109.50;5050566;28;20033;-73
2022/06/04 01:55:10;;;;;;;7.88;4.07;;;;;;;20.23;43.08;102115.88;5030407;28;20033;-74
2022/06/04 01:57:52;;;;;;;6.25;3.92;;;;;;;21.47;40.29;102102.06;5032710;28;20021;-73
2022/06/04 02:00:25;;;;;;;7.80;4.13;;;;;;;20.03;43.31;102114.69;5031160;28;20045;-73
2022/06/04 02:02:57;;;;;;;5.53;3.83;;;;;;;21.81;39.92;102107.03;5028838;28;20060;-73
2022/06/04 02:05:25;;;;;;;;;;;;;;;19.14;45.28;102117.97;5031991;28;20017;-72
2022/06/04 02:07:54;;;;;;;7.90;3.95;;;;;;;19.96;43.68;102107.78;5031038;28;19999;-73
2022/06/04 02:10:31;;;;;;;5.22;4.15;;;;;;;20.81;42.51;102107.84;5062435;28;20029;-73
2022/06/04 02:13:00;;;;;;;6.95;4.25;;;;;;;19.98;43.42;102113.94;5031443;28;20049;-73
2022/06/04 02:15:52;;;;;;;7.30;4.22;;;;;;;22.03;39.82;102111.56;5031725;28;20025;-73
2022/06/04 02:18:18;;;;;;;9.73;4.45;;;;;;;20.05;43.63;102126.09;5031689;28;20029;-75
2022/06/04 02:20:43;;;;;;;8.23;5.43;;;;;;;20.40;43.51;102121.53;5030430;28;20100;-74
2022/06/04 02:23:09;;;;;;;10.30;4.60;;;;;;;19.56;44.72;102123.00;5030545;28;20117;-71
2022/06/04 02:25:35;;;;;;;8.00;5.10;;;;;;;20.23;43.69;102122.03;5032620;28;20401;-72
2022/06/04 02:28:01;;;;;;;8.85;5.03;;;;;;;19.58;45.08;102120.34;5030371;28;20029;-72
2022/06/04 02:30:43;;;;;;;7.72;5.32;;;;;;;19.59;44.49;102120.31;5031442;28;20046;-73
2022/06/04 02:33:22;;;;;;;5.60;4.65;;;;;;;21.31;41.65;102115.06;5012219;28;20220;-73
2022/06/04 02:36:04;;;;;;;10.85;5.22;;;;;;;21.12;41.66;102114.81;5026353;28;20018;-73
2022/06/04 02:38:35;;;;;;;8.65;5.43;;;;;;;20.01;44.47;102116.50;5029591;28;20040;-74
2022/06/04 02:41:11;;;;;;;8.63;6.18;;;;;;;21.39;41.45;102109.44;5032001;28;20025;-72
2022/06/04 02:43:45;;;;;;;12.70;5.72;;;;;;;21.92;40.59;102103.13;5034351;28;20055;-73
2022/06/04 02:46:24;;;;;;;9.20;5.63;;;;;;;21.82;40.52;102098.16;5030255;28;20036;-73
2022/06/04 02:48:59;;;;;;;8.90;5.57;;;;;;;20.28;43.78;102108.63;5014853;28;20163;-74
2022/06/04 02:51:29;;;;;;;12.50;5.65;;;;;;;20.31;43.29;102105.88;5029717;28;20032;-73
2022/06/04 02:53:56;;;;;;;8.18;5.20;;;;;;;21.35;42.13;102100.72;5025616;28;20044;-74
2022/06/04 02:56:30;;;;;;;8.63;5.20;;;;;;;21.59;41.38;102091.00;5030001;28;20025;-74
2022/06/04 02:58:59;;;;;;;10.05;5.75;;;;;;;21.55;41.08;102093.84;5016298;28;20071;-74
2022/06/04 03:01:26;;;;;;;10.85;5.57;;;;;;;21.01;42.49;102078.81;5031236;28;20025;-74
2022/06/04 03:03:52;;;;;;;9.65;5.82;;;;;;;20.45;44.27;102077.09;5030271;28;20072;-74
2022/06/04 03:06:44;;;;;;;8.80;5.75;;;;;;;21.84;40.90;102079.47;5030636;28;20485;-74
2022/06/04 03:09:13;;;;;;;7.85;4.57;;;;;;;19.89;44.98;102079.72;5027258;28;20405;-74
2022/06/04 03:11:46;;;;;;;6.75;5.25;;;;;;;21.23;42.65;102069.25;5031540;28;20112;-73
2022/06/04 03:14:13;;;;;;;8.23;4.85;;;;;;;20.27;44.27;102077.69;5030500;28;20029;-74
2022/06/04 03:16:42;;;;;;;10.07;5.15;;;;;;;19.53;45.86;102085.97;5031153;28;20018;-74
2022/06/04 03:19:09;;;;;;;6.72;5.50;;;;;;;19.66;45.54;102073.28;5028913;28;20029;-74
2022/06/04 03:21:36;;;;;;;16.75;5.35;;;;;;;19.72;46.11;102078.38;5038696;28;20021;-73
2022/06/04 03:24:02;;;;;;;11.85;5.07;;;;;;;19.79;45.98;102079.94;5029623;28;20353;-74
2022/06/04 03:26:28;;;;;;;9.90;5.47;;;;;;;19.97;45.84;102090.97;5029154;28;20091;-74
2022/06/04 03:28:53;;;;;;;7.18;4.95;;;;;;;19.82;46.04;102100.22;5028944;28;20088;-74
2022/06/04 03:31:18;;;;;;;12.65;5.53;;;;;;;19.57;46.53;102094.75;5029269;28;20057;-73
2022/06/04 03:33:44;;;;;;;9.80;5.05;;;;;;;20.12;44.69;102094.94;5029328;28;20018;-74
2022/06/04 03:36:11;;;;;;;12.60;6.10;;;;;;;20.75;43.62;102082.38;5030105;28;20037;-73
2022/06/04 03:38:36;;;;;;;11.88;5.45;;;;;;;19.96;45.39;102081.25;5033604;28;20080;-74
2022/06/04 03:41:02;;;;;;;11.00;5.45;;;;;;;20.49;44.13;102070.75;5029513;28;20435;-73
2022/06/04 03:43:27;;;;;;;9.85;6.40;;;;;;;20.82;43.84;102073.25;5033870;28;20065;-73
2022/06/04 03:45:53;;;;;;;9.65;5.28;;;;;;;20.19;44.70;102082.38;5029922;28;20029;-73
2022/06/04 03:48:19;;;;;;;8.82;6.20;;;;;;;19.96;44.98;102081.25;5030270;28;20071;-77
2022/06/04 03:50:44;;;;;;;10.30;5.70;;;;;;;20.16;45.42;102084.19;5030042;28;20501;-74
2022/06/04 03:53:09;;;;;;;12.32;5.65;;;;;;;20.22;45.20;102084.91;5029431;28;20541;-75
2022/06/04 03:55:35;;;;;;;9.32;5.18;;;;;;;20.50;43.89;102092.91;5029632;28;20075;-71
2022/06/04 03:58:00;;;;;;;8.52;5.20;;;;;;;19.29;47.26;102090.19;5031488;28;20079;-75
2022/06/04 04:00:28;;;;;;;9.88;5.13;;;;;;;19.60;46.92;102089.34;5032645;28;20040;-74
2022/06/04 04:02:57;;;;;;;10.25;5.88;;;;;;;20.60;44.10;102089.00;5033888;28;20033;-74
2022/06/04 04:05:34;;;;;;;6.95;4.85;;;;;;;19.54;46.70;102086.88;5033784;28;20033;-73
2022/06/04 04:08:02;;;;;;;9.80;5.05;;;;;;;19.94;46.57;102083.97;5017926;28;20041;-74
2022/06/04 04:10:29;;;;;;;10.07;6.03;;;;;;;19.97;45.85;102085.66;5014668;28;20056;-73
2022/06/04 04:12:55;;;;;;;10.13;5.72;;;;;;;21.10;43.95;102075.00;5063355;28;20025;-74
2022/06/04 04:15:21;;;;;;;9.57;4.85;;;;;;;20.40;45.07;102070.19;5035770;28;20038;-75
2022/06/04 04:17:47;;;;;;;13.40;5.38;;;;;;;19.94;45.49;102088.41;5032875;28;20560;-73
2022/06/04 04:20:21;;;;;;;10.02;5.00;;;;;;;20.63;44.66;102072.13;5030452;28;20105;-75
2022/06/04 04:22:47;;;;;;;9.57;5.30;;;;;;;20.14;46.17;102075.41;5012370;28;20715;-74
2022/06/04 04:25:15;;;;;;;8.13;5.05;;;;;;;19.98;46.00;102088.25;5015507;28;20026;-74
2022/06/04 04:27:41;;;;;;;7.47;5.03;;;;;;;20.38;46.09;102094.13;5031545;28;20029;-74
2022/06/04 04:30:09;;;;;;;10.73;5.18;;;;;;;20.40;46.11;102102.94;5032629;28;20068;-74
2022/06/04 04:32:35;;;;;;;8.95;4.30;;;;;;;18.98;48.66;102096.28;5066544;28;20477;-74
2022/06/04 04:35:01;;;;;;;8.77;5.05;;;;;;;19.56;46.84;102095.63;5033273;28;20040;-72
2022/06/04 04:37:27;;;;;;;10.50;4.78;;;;;;;19.87;47.43;102094.81;5031152;28;20013;-75
2022/06/04 04:39:52;;;;;;;9.07;4.97;;;;;;;19.32;48.13;102100.72;5032248;28;20303;-73
2022/06/04 04:42:18;;;;;;;9.25;5.55;;;;;;;19.91;47.17;102101.78;5033266;28;20029;-75
2022/06/04 04:44:43;;;;;;;12.60;5.80;;;;;;;20.10;46.57;102110.03;5032543;28;20029;-74
2022/06/04 04:47:09;;;;;;;8.63;5.03;;;;;;;19.93;46.55;102108.75;5049030;28;20064;-73
2022/06/04 04:49:35;;;;;;;7.30;4.72;;;;;;;19.39;48.09;102104.94;5035925;28;20034;-75
2022/06/04 04:52:00;;;;;;;13.10;5.40;;;;;;;19.45;48.52;102102.13;5032324;28;20033;-75
2022/06/04 04:54:28;;;;;;;9.13;5.60;;;;;;;19.24;48.11;102095.59;5032957;28;20545;-74
2022/06/04 04:56:53;;;;;;;16.80;5.57;;;;;;;20.06;46.94;102109.28;5033197;28;20029;-75
2022/06/04 04:59:19;;;;;;;10.70;5.43;;;;;;;19.71;47.09;102108.47;5025127;28;20485;-74
2022/06/04 05:01:44;;;;;;;12.02;5.88;;;;;;;19.75;46.73;102111.91;5032970;28;20029;-75
2022/06/04 05:04:10;;;;;;;9.23;5.53;;;;;;;20.00;46.59;102115.63;5032840;28;20026;-75
2022/06/04 05:06:35;;;;;;;11.98;4.82;;;;;;;21.04;44.38;102096.47;5031257;28;20034;-75
2022/06/04 05:09:01;;;;;;;13.35;5.75;;;;;;;20.81;44.50;102102.53;5030067;28;20138;-75
2022/06/04 05:11:29;;;;;;;11.27;4.93;;;;;;;20.73;44.90;102104.59;5034119;28;20038;-74
2022/06/04 05:13:56;;;;;;;8.63;4.90;;;;;;;19.98;46.09;102111.28;5032150;28;20060;-73
2022/06/04 05:16:25;;;;;;;8.90;5.13;;;;;;;20.47;44.94;102120.41;5033767;28;20032;-74
2022/06/04 05:18:51;;;;;;;8.05;4.47;;;;;;;21.49;42.56;102106.41;5015834;28;20450;-74
2022/06/04 05:21:21;;;;;;;11.38;5.60;;;;;;;20.24;45.06;102120.25;5027393;28;20072;-74
2022/06/04 05:23:47;;;;;;;12.35;4.90;;;;;;;21.22;43.74;102096.75;5032656;28;20026;-73
2022/06/04 05:26:13;;;;;;;10.27;5.22;;;;;;;21.73;42.15;102098.47;5031121;28;20033;-74
2022/06/04 05:28:38;;;;;;;12.13;5.75;;;;;;;21.28;43.65;102107.16;5026980;28;20030;-75
2022/06/04 05:31:04;;;;;;;8.63;4.20;;;;;;;19.36;47.52;102109.44;5012089;28;20632;-74
2022/06/04 05:33:29;;;;;;;11.20;5.32;;;;;;;20.35;45.39;102120.78;5026836;28;20029;-75
2022/06/04 05:35:55;;;;;;;10.45;5.13;;;;;;;21.47;43.09;102118.91;5028916;28;20071;-74
2022/06/04 05:38:21;;;;;;;13.80;5.47;;;;;;;21.61;42.99;102115.78;5035671;28;20021;-74
2022/06/04 05:40:46;;;;;;;8.15;5.13;;;;;;;20.50;44.36;102127.41;5031674;28;20021;-75
2022/06/04 05:43:12;;;;;;;9.93;5.32;;;;;;;20.60;44.73;102125.34;5032779;28;20018;-75
2022/06/04 05:45:38;;;;;;;8.88;4.72;;;;;;;21.19;43.24;102124.31;5030476;28;20082;-74
2022/06/04 05:48:04;;;;;;;7.40;4.60;;;;;;;20.84;43.95;102119.25;5025708;28;20273;-74
2022/06/04 05:50:29;;;;;;;11.23;4.55;;;;;;;21.11;44.23;102116.59;5014757;28;20497;-75
2022/06/04 05:52:55;;;;;;;6.10;4.90;;;;;;;21.34;43.21;102107.81;5032457;28;20029;-75
2022/06/04 05:55:22;;;;;;;7.95;4.63;;;;;;;22.04;41.71;102102.66;5032231;28;20029;-74
2022/06/04 05:57:48;;;;;;;11.38;5.32;;;;;;;20.98;44.28;102115.28;5031105;28;20393;-74
2022/06/04 06:00:14;;;;;;;8.98;4.35;;;;;;;21.24;43.20;102117.06;5035017;28;20419;-74
2022/06/04 06:02:39;;;;;;;14.75;5.07;;;;;;;22.58;40.86;102121.03;5030035;28;20029;-74
2022/06/04 06:05:05;;;;;;;8.75;4.43;;;;;;;22.16;41.94;102123.50;5032643;28;20041;-75
2022/06/04 06:07:31;;;;;;;9.15;4.97;;;;;;;22.24;41.52;102124.97;5032846;28;20032;-74
2022/06/04 06:09:56;;;;;;;6.65;4.65;;;;;;;22.89;39.14;102139.28;5031052;28;20393;-72
2022/06/04 06:12:22;;;;;;;12.88;4.93;;;;;;;22.58;40.56;102127.22;5030706;28;20469;-74
2022/06/04 06:14:47;;;;;;;8.30;4.70;;;;;;;22.06;41.07;102122.09;5031612;28;20037;-72
2022/06/04 06:17:13;;;;;;;8.32;3.90;;;;;;;21.16;43.14;102141.22;5029830;28;20044;-70
2022/06/04 06:19:38;;;;;;;5.63;4.00;;;;;;;23.18;40.09;102130.09;5031856;28;20052;-74
2022/06/04 06:22:04;;;;;;;8.48;3.45;;;;;;;22.13;41.89;102138.69;5021942;28;20956;-75
2022/06/04 06:24:29;;;;;;;7.75;4.32;;;;;;;21.52;42.26;102143.56;5031788;28;20207;-75
2022/06/04 06:26:57;;;;;;;12.32;5.38;;;;;;;22.32;41.78;102138.88;5029725;28;20308;-75
2022/06/04 06:29:26;;;;;;;10.10;4.80;;;;;;;23.02;39.55;102139.63;5062796;28;20051;-75
2022/06/04 06:31:53;;;;;;;6.40;4.07;;;;;;;21.56;42.44;102138.16;5031938;28;20029;-75
2022/06/04 06:34:20;;;;;;;10.18;4.30;;;;;;;21.79;42.37;102145.28;5030399;28;20021;-75
2022/06/04 06:36:46;;;;;;;6.75;4.05;;;;;;;22.06;41.29;102154.03;5028651;28;20033;-74
2022/06/04 06:39:11;;;;;;;6.53;4.47;;;;;;;22.81;40.15;102158.25;5031166;28;20087;-74
2022/06/04 06:41:37;;;;;;;9.55;4.40;;;;;;;23.42;39.14;102159.28;5030237;28;20025;-74
2022/06/04 06:44:04;;;;;;;11.18;4.63;;;;;;;23.62;38.74;102165.59;5030870;28;20044;-74
2022/06/04 06:46:36;;;;;;;7.80;4.32;;;;;;;22.76;39.68;102172.69;5030231;28;20104;-73
2022/06/04 06:49:11;;;;;;;8.30;3.90;;;;;;;22.69;39.64;102175.59;5028686;28;20520;-72
2022/06/04 06:51:47;;;;;;;6.93;3.95;;;;;;;24.17;37.94;102171.09;5030765;28;20108;-75
2022/06/04 06:54:14;;;;;;;9.65;4.22;;;;;;;22.58;39.97;102182.31;5031410;28;20056;-75
2022/06/04 06:56:41;;;;;;;7.90;4.40;;;;;;;22.97;39.93;102178.94;5029486;28;20026;-74
2022/06/04 06:59:08;;;;;;;9.90;4.18;;;;;;;24.02;37.89;102191.38;5026940;28;20057;-74
2022/06/04 07:01:34;;;;;;;7.75;3.88;;;;;;;24.18;37.85;102188.00;5059509;28;20381;-74
2022/06/04 07:04:02;;;;;;;9.43;4.13;;;;;;;22.97;39.49;102189.59;5029211;28;20025;-76
2022/06/04 07:06:30;;;;;;;10.30;4.20;;;;;;;24.61;37.34;102188.69;5029670;28;20486;-75
2022/06/04 07:08:57;;;;;;;6.70;3.92;;;;;;;23.93;37.99;102185.59;5030342;28;20450;-74
2022/06/04 07:11:22;;;;;;;11.75;4.60;;;;;;;23.45;38.75;102180.53;5028262;28;20456;-75
2022/06/04 07:13:47;;;;;;;9.77;4.20;;;;;;;24.36;37.26;102179.13;5028822;28;20665;-75
2022/06/04 07:16:13;;;;;;;9.25;4.53;;;;;;;23.23;39.54;102185.03;5030475;28;20018;-74
2022/06/04 07:18:38;;;;;;;7.95;4.22;;;;;;;24.41;37.51;102191.41;5060800;28;20485;-74
2022/06/04 07:21:05;;;;;;;12.40;4.30;;;;;;;25.21;35.43;102183.06;5030708;28;20029;-75
2022/06/04 07:23:34;;;;;;;8.35;3.85;;;;;;;26.33;34.23;102182.59;5017443;28;20033;-74
2022/06/04 07:26:00;;;;;;;9.48;4.43;;;;;;;24.35;37.21;102189.91;5028866;28;20029;-75
2022/06/04 07:28:26;;;;;;;8.23;4.32;;;;;;;25.47;34.97;102185.34;5026961;28;20049;-73
2022/06/04 07:30:51;;;;;;;9.10;3.80;;;;;;;25.16;36.04;102187.75;5030611;28;20073;-74
2022/06/04 07:33:16;;;;;;;8.90;4.30;;;;;;;23.54;38.04;102190.78;5027425;28;20029;-74
2022/06/04 07:35:50;;;;;;;7.40;3.88;;;;;;;24.22;37.94;102193.13;5036129;28;20052;-74
2022/06/04 07:38:17;;;;;;;5.75;3.85;;;;;;;24.05;37.25;102191.22;5015405;28;20026;-75
2022/06/04 07:40:43;;;;;;;5.95;3.85;;;;;;;23.30;38.78;102202.50;5061990;28;20030;-75
2022/06/04 07:43:09;;;;;;;8.43;4.20;;;;;;;23.93;38.40;102199.78;5033921;28;20056;-75
2022/06/04 07:45:35;;;;;;;9.48;3.30;;;;;;;24.91;37.00;102196.16;5032554;28;20124;-75
2022/06/04 07:48:02;;;;;;;10.18;3.97;;;;;;;24.46;37.64;102195.59;5065142;28;20124;-75
2022/06/04 07:50:28;;;;;;;10.68;4.30;;;;;;;24.62;37.28;102190.44;5033693;28;20530;-75
2022/06/04 07:52:53;;;;;;;12.10;4.00;;;;;;;23.93;38.14;102182.91;5034854;28;20029;-74
2022/06/04 07:55:18;;;;;;;9.20;4.28;;;;;;;24.33;37.82;102173.06;5030413;28;20091;-75
2022/06/04 07:57:44;;;;;;;7.30;3.95;;;;;;;24.70;37.40;102174.00;5033479;28;20037;-75
2022/06/04 08:00:11;;;;;;;6.45;3.60;;;;;;;23.43;38.60;102160.19;5034800;28;20063;-76
2022/06/04 08:02:36;;;;;;;9.80;4.38;;;;;;;24.42;37.48;102164.63;5033497;28;20146;-75
2022/06/04 08:05:02;;;;;;;7.05;4.03;;;;;;;23.49;39.16;102160.78;5017293;28;20104;-74
2022/06/04 08:07:28;;;;;;;6.78;4.20;;;;;;;23.63;38.62;102173.53;5033682;28;20029;-73
2022/06/04 08:09:54;;;;;;;9.10;4.05;;;;;;;24.12;38.83;102172.25;5033689;28;20101;-75
2022/06/04 08:12:19;;;;;;;9.38;3.78;;;;;;;24.69;37.18;102174.97;5033086;28;20030;-75
2022/06/04 08:14:46;;;;;;;6.78;3.55;;;;;;;23.84;38.29;102187.69;5038591;28;20288;-74
2022/06/04 08:17:12;;;;;;;6.75;3.75;;;;;;;24.50;37.17;102191.84;5036513;28;20033;-74
2022/06/04 08:19:39;;;;;;;6.43;3.15;;;;;;;24.85;37.29;102192.00;5028579;28;20080;-75
2022/06/04 08:22:05;;;;;;;6.10;3.25;;;;;;;23.54;38.50;102189.94;5030253;28;20032;-72
2022/06/04 08:24:31;;;;;;;6.68;3.78;;;;;;;24.47;37.47;102178.63;5031409;28;20022;-74
2022/06/04 08:26:58;;;;;;;6.75;4.13;;;;;;;24.49;37.28;102184.75;5048382;28;20026;-74
2022/06/04 08:29:26;;;;;;;8.63;4.38;;;;;;;23.88;38.17;102181.31;5033529;28;20480;-74
2022/06/04 08:31:51;;;;;;;8.38;3.80;;;;;;;24.87;37.03;102195.44;5036568;28;20025;-74
2022/06/04 08:34:17;;;;;;;5.53;3.38;;;;;;;24.48;37.29;102198.19;5036750;28;20496;-76
2022/06/04 08:36:43;;;;;;;6.30;3.30;;;;;;;24.51;36.88;102203.38;5033523;28;20048;-75
2022/06/04 08:39:09;;;;;;;8.25;3.38;;;;;;;24.24;37.38;102205.56;5034067;28;20478;-76
2022/06/04 08:41:52;;;;;;;10.02;3.67;;;;;;;25.34;36.20;102198.53;5031669;28;20028;-75
2022/06/04 08:44:22;;;;;;;8.40;3.40;;;;;;;24.96;36.45;102206.63;5030178;28;20017;-74
2022/06/04 08:46:52;;;;;;;6.00;3.28;;;;;;;24.37;37.57;102201.38;5032618;28;20109;-72
2022/06/04 08:49:29;;;;;;;9.23;3.83;;;;;;;24.47;36.92;102208.03;5034702;28;20022;-73
2022/06/04 08:51:56;;;;;;;4.43;3.20;;;;;;;25.27;35.84;102207.78;5032092;28;20032;-74
2022/06/04 09:00:12;;;;;;;6.60;3.20;;;;;;;26.63;33.88;102203.28;5034038;28;20046;-74
2022/06/04 09:02:54;;;;;;;4.28;2.92;;;;;;;26.45;33.87;102203.34;5030572;28;20103;-72
2022/06/04 09:05:38;;;;;;;7.03;3.50;;;;;;;25.34;35.74;102198.53;5062649;28;20068;-74
2022/06/04 09:08:12;;;;;;;5.85;3.33;;;;;;;24.68;37.56;102205.31;5032724;28;20295;-71
2022/06/04 09:10:51;;;;;;;4.53;3.00;;;;;;;27.11;33.96;102206.78;5031010;28;20049;-75
2022/06/04 09:13:26;;;;;;;7.07;4.03;;;;;;;26.41;33.87;102212.53;5033015;28;20080;-72
2022/06/04 09:15:53;;;;;;;5.57;3.20;;;;;;;26.39;33.48;102209.03;5056724;28;20025;-72
2022/06/04 09:18:24;;;;;;;9.43;2.92;;;;;;;25.14;35.79;102211.06;5043486;28;20029;-73
2022/06/04 09:21:01;;;;;;;6.07;3.40;;;;;;;26.33;34.70;102204.03;5060863;28;20031;-73
2022/06/04 09:23:36;;;;;;;7.13;3.55;;;;;;;26.66;33.24;102205.78;5030993;28;20025;-72
2022/06/04 09:26:13;;;;;;;3.83;3.03;;;;;;;25.33;35.45;102213.69;5029091;28;20049;-74
2022/06/04 09:29:05;;;;;;;5.60;3.63;;;;;;;26.51;33.63;102208.34;5031944;28;20029;-74
2022/06/04 09:31:36;;;;;;;7.35;3.47;;;;;;;25.95;34.68;102204.28;5027214;28;20061;-73
2022/06/04 09:34:08;;;;;;;4.03;3.13;;;;;;;26.40;35.00;102205.41;5031462;28;20079;-72
2022/06/04 09:36:36;;;;;;;9.15;3.45;;;;;;;25.79;35.44;102198.84;5020977;28;20095;-74
2022/06/04 09:39:06;;;;;;;5.90;3.35;;;;;;;26.10;34.73;102203.47;5022537;28;20051;-74
2022/06/04 09:41:33;;;;;;;6.93;3.08;;;;;;;25.93;35.20;102203.50;5032827;28;20088;-74
2022/06/04 09:44:13;;;;;;;5.70;2.88;;;;;;;25.94;34.92;102203.41;5032603;28;20076;-75
2022/06/04 09:46:43;;;;;;;10.45;3.50;;;;;;;26.47;34.77;102212.16;5030729;28;20171;-74
2022/06/04 09:49:24;;;;;;;6.88;3.22;;;;;;;27.31;34.26;102207.44;5023960;28;20527;-74
2022/06/04 09:51:50;;;;;;;8.68;3.22;;;;;;;26.62;34.53;102199.72;5031925;28;20037;-74
2022/06/04 09:54:22;;;;;;;4.32;3.20;;;;;;;27.26;33.68;102192.47;5032435;28;20039;-74
2022/06/04 09:56:52;;;;;;;5.30;3.40;;;;;;;26.80;34.94;102191.63;5036128;28;20112;-74
2022/06/04 09:59:20;;;;;;;4.97;3.50;;;;;;;26.12;35.23;102195.34;5031921;28;20025;-74
2022/06/04 10:01:55;;;;;;;7.32;3.60;;;;;;;26.34;35.98;102192.38;5010520;28;20022;-75
2022/06/04 10:04:21;;;;;;;5.78;3.58;;;;;;;27.68;33.55;102205.22;5055547;28;20040;-74
2022/06/04 10:06:47;;;;;;;6.85;3.65;;;;;;;25.99;35.40;102205.84;5029282;28;20417;-75
2022/06/04 10:12:14;;;;;;;5.35;3.20;;;;;;;27.26;33.62;102205.88;5031068;28;20438;-74
2022/06/04 10:14:42;;;;;;;5.95;3.55;;;;;;;25.90;35.55;102207.22;5032079;28;20035;-74
2022/06/04 10:17:19;;;;;;;6.18;3.20;;;;;;;26.81;35.11;102206.75;5031258;28;20049;-72
2022/06/04 10:19:53;;;;;;;4.97;3.50;;;;;;;27.61;33.37;102209.25;5010876;28;20029;-74
2022/06/04 10:22:19;;;;;;;7.10;3.40;;;;;;;26.18;35.13;102200.38;5027122;28;20033;-74
2022/06/04 10:24:53;;;;;;;6.13;3.85;;;;;;;25.78;35.89;102203.34;5029852;28;20036;-74
2022/06/04 10:27:40;;;;;;;5.70;4.00;;;;;;;27.30;34.32;102192.25;5056125;28;20060;-74
2022/06/04 10:30:22;;;;;;;5.35;3.80;;;;;;;28.51;32.86;102194.66;5026606;28;20050;-75
2022/06/04 10:33:14;;;;;;;8.23;4.00;;;;;;;26.84;35.18;102194.00;5028918;28;20124;-74
2022/06/04 10:36:15;;;;;;;6.82;4.40;;;;;;;26.38;35.63;102196.63;5032223;28;20084;-74
2022/06/04 10:39:21;;;;;;;4.57;3.58;;;;;;;27.77;33.82;102202.84;5029222;28;20033;-74
2022/06/04 10:41:56;;;;;;;7.28;4.63;;;;;;;26.36;36.14;102209.22;5028857;28;20037;-74
2022/06/04 10:44:56;;;;;;;5.10;3.80;;;;;;;26.59;35.39;102200.75;5029582;28;20482;-74
2022/06/04 10:47:36;;;;;;;8.98;4.43;;;;;;;26.96;35.16;102207.69;5018827;28;20029;-75
2022/06/04 10:50:22;;;;;;;8.02;3.92;;;;;;;27.53;33.89;102199.84;5028170;28;20079;-74
2022/06/04 10:52:56;;;;;;;6.10;4.07;;;;;;;26.75;35.09;102205.28;5031223;28;20147;-75
2022/06/04 10:55:43;;;;;;;6.40;3.85;;;;;;;27.37;34.66;102201.75;5026831;28;20030;-74
2022/06/04 10:58:44;;;;;;;5.05;3.72;;;;;;;26.88;35.49;102200.06;5012264;28;20061;-74
2022/06/04 11:01:39;;;;;;;9.93;4.60;;;;;;;27.10;34.62;102199.69;5031212;28;21129;-74
2022/06/04 11:04:21;;;;;;;7.47;4.03;;;;;;;26.97;35.30;102206.72;5029215;28;20373;-74
2022/06/04 11:06:54;;;;;;;7.72;4.55;;;;;;;28.29;33.39;102211.31;5062043;28;20036;-74
2022/06/04 11:09:28;;;;;;;11.32;5.03;;;;;;;27.32;34.46;102203.78;5032108;28;20033;-75
2022/06/04 11:12:36;;;;;;;6.63;4.20;;;;;;;27.47;34.76;102202.91;5027339;28;20033;-75
2022/06/04 11:15:12;;;;;;;7.00;4.47;;;;;;;27.25;34.96;102198.78;5029098;28;20044;-73
2022/06/04 11:17:50;;;;;;;8.40;4.50;;;;;;;27.97;33.46;102203.41;5029352;28;20436;-74
2022/06/04 11:20:24;;;;;;;6.25;4.53;;;;;;;28.49;33.45;102207.34;5026818;28;20025;-75
2022/06/04 11:22:59;;;;;;;6.82;4.28;;;;;;;28.04;34.08;102195.88;5039235;28;20064;-74
2022/06/04 11:25:32;;;;;;;8.07;4.93;;;;;;;29.43;31.73;102192.22;5028828;28;20079;-74
2022/06/04 11:28:03;;;;;;;6.50;4.13;;;;;;;28.21;32.90;102214.50;5029704;28;20547;-74
2022/06/04 11:30:35;;;;;;;10.83;4.70;;;;;;;28.17;33.57;102209.41;5029142;28;20183;-73
2022/06/04 11:33:35;;;;;;;8.23;4.57;;;;;;;27.57;34.44;102209.44;5024652;28;20108;-74
2022/06/04 11:36:18;;;;;;;7.88;4.55;;;;;;;26.89;35.50;102213.41;5029718;28;20493;-74
2022/06/04 11:39:41;;;;;;;8.98;4.72;;;;;;;27.95;33.87;102207.19;5029035;28;20389;-74
2022/06/04 11:42:10;;;;;;;6.13;4.90;;;;;;;27.32;34.60;102226.13;5025322;28;20048;-74
2022/06/04 11:44:45;;;;;;;8.45;4.13;;;;;;;28.21;33.58;102214.50;5010333;28;20042;-75
2022/06/04 11:47:31;;;;;;;7.30;4.50;;;;;;;28.53;32.78;102214.25;5010348;28;20046;-74
2022/06/04 11:50:10;;;;;;;11.23;5.30;;;;;;;28.76;33.00;102225.38;5024719;28;20033;-74
2022/06/04 11:52:58;;;;;;;7.35;4.60;;;;;;;28.30;33.61;102212.19;5032274;28;20025;-74
2022/06/04 11:55:29;;;;;;;6.13;4.45;;;;;;;27.46;34.55;102209.22;5029158;28;20449;-75
2022/06/04 11:57:58;;;;;;;11.48;5.18;;;;;;;26.97;36.54;102209.41;5029151;28;20030;-75